createdAt,value
2018-12-30T00:01:38.193Z,8.14
2018-12-30T00:04:06.497Z,8.16
2018-12-30T00:06:34.840Z,8.17
2018-12-30T00:09:03.173Z,8.19
2018-12-30T00:11:31.496Z,8.18
2018-12-30T00:13:59.865Z,8.20
2018-12-30T00:16:28.264Z,8.17
2018-12-30T00:18:56.593Z,8.16
2018-12-30T00:21:24.977Z,8.16
2018-12-30T00:23:53.563Z,8.14
2018-12-30T00:26:22.140Z,8.13
2018-12-30T00:28:50.676Z,8.13
2018-12-30T00:31:19.162Z,8.12
2018-12-30T00:33:47.860Z,8.11
2018-12-30T00:36:16.558Z,8.09
2018-12-30T00:38:44.705Z,8.07
2018-12-30T00:41:13.296Z,8.05
2018-12-30T00:43:41.650Z,8.00
2018-12-30T00:46:10.001Z,7.97
2018-12-30T00:48:38.404Z,7.94
2018-12-30T00:51:06.741Z,7.91
2018-12-30T00:53:35.190Z,7.91
2018-12-30T00:56:03.516Z,7.92
2018-12-30T00:58:31.849Z,7.94
2018-12-30T01:01:00.185Z,7.96
2018-12-30T01:03:28.525Z,7.96
2018-12-30T01:05:57.053Z,7.98
2018-12-30T01:08:25.381Z,8.00
2018-12-30T01:10:55.120Z,8.01
2018-12-30T01:13:22.846Z,8.01
2018-12-30T01:15:51.175Z,7.98
2018-12-30T01:18:19.522Z,7.96
2018-12-30T01:20:47.861Z,7.95
2018-12-30T01:23:16.189Z,7.94
2018-12-30T01:25:44.540Z,7.97
2018-12-30T01:28:12.851Z,7.98
2018-12-30T01:30:41.180Z,7.98
2018-12-30T01:33:09.506Z,8.00
2018-12-30T01:35:37.960Z,8.00
2018-12-30T01:38:06.293Z,7.96
2018-12-30T01:40:34.610Z,7.94
2018-12-30T01:43:02.945Z,7.95
2018-12-30T01:45:31.265Z,7.96
2018-12-30T01:47:59.598Z,8.00
2018-12-30T01:50:27.917Z,8.03
2018-12-30T01:52:56.249Z,8.07
2018-12-30T01:55:24.576Z,8.10
2018-12-30T01:57:52.923Z,8.16
2018-12-30T02:00:21.257Z,8.20
2018-12-30T02:02:49.580Z,8.22
2018-12-30T02:05:17.914Z,8.22
2018-12-30T02:07:46.239Z,8.23
2018-12-30T02:10:14.574Z,8.23
2018-12-30T02:12:42.903Z,8.25
2018-12-30T02:15:11.238Z,8.23
2018-12-30T02:17:39.565Z,8.17
2018-12-30T02:20:07.895Z,8.14
2018-12-30T02:22:36.210Z,8.09
2018-12-30T02:25:04.547Z,7.99
2018-12-30T02:27:32.865Z,7.90
2018-12-30T02:30:01.446Z,7.84
2018-12-30T02:32:29.512Z,7.78
2018-12-30T02:34:57.832Z,7.72
2018-12-30T02:37:26.170Z,7.62
2018-12-30T02:39:54.488Z,7.55
2018-12-30T02:42:22.825Z,7.53
2018-12-30T02:44:51.141Z,7.49
2018-12-30T02:47:19.483Z,7.45
2018-12-30T02:49:47.813Z,7.41
2018-12-30T02:52:16.139Z,7.34
2018-12-30T02:54:44.497Z,7.31
2018-12-30T02:57:12.802Z,7.29
2018-12-30T02:59:41.138Z,7.27
2018-12-30T03:02:09.458Z,7.26
2018-12-30T03:04:37.806Z,7.24
2018-12-30T03:07:06.414Z,7.23
2018-12-30T03:09:34.755Z,7.23
2018-12-30T03:12:03.073Z,7.25
2018-12-30T03:14:31.418Z,7.25
2018-12-30T03:16:59.755Z,7.25
2018-12-30T03:19:28.093Z,7.26
2018-12-30T03:21:59.271Z,7.27
2018-12-30T03:24:24.751Z,7.30
2018-12-30T03:26:53.085Z,7.30
2018-12-30T03:29:21.418Z,7.32
2018-12-30T03:31:49.752Z,7.31
2018-12-30T03:34:18.065Z,7.35
2018-12-30T03:36:46.403Z,7.36
2018-12-30T03:39:14.737Z,7.38
2018-12-30T03:41:43.050Z,7.39
2018-12-30T03:44:11.451Z,7.43
2018-12-30T03:46:39.718Z,7.44
2018-12-30T03:49:08.040Z,7.46
2018-12-30T03:51:36.385Z,7.49
2018-12-30T03:54:04.720Z,7.47
2018-12-30T03:56:33.053Z,7.46
2018-12-30T03:59:01.379Z,7.47
2018-12-30T04:01:29.706Z,7.48
2018-12-30T04:03:59.542Z,7.49
2018-12-30T04:06:27.876Z,7.47
2018-12-30T04:08:56.205Z,7.46
2018-12-30T04:11:24.545Z,7.43
2018-12-30T04:13:52.864Z,7.43
2018-12-30T04:16:21.189Z,7.41
2018-12-30T04:18:49.518Z,7.42
2018-12-30T04:21:17.847Z,7.42
2018-12-30T04:23:46.169Z,7.45
2018-12-30T04:26:15.535Z,7.45
2018-12-30T04:28:42.820Z,7.44
2018-12-30T04:31:11.158Z,7.45
2018-12-30T04:33:39.476Z,7.46
2018-12-30T04:36:07.799Z,7.44
2018-12-30T04:38:36.127Z,7.47
2018-12-30T04:41:04.466Z,7.47
2018-12-30T04:43:32.792Z,7.49
2018-12-30T04:46:01.120Z,7.52
2018-12-30T04:48:29.453Z,7.52
2018-12-30T04:50:57.783Z,7.56
2018-12-30T04:53:26.131Z,7.57
2018-12-30T04:55:54.937Z,7.57
2018-12-30T04:58:23.254Z,7.57
2018-12-30T05:00:51.579Z,7.56
2018-12-30T05:03:19.907Z,7.56
2018-12-30T05:05:48.230Z,7.56
2018-12-30T05:08:16.553Z,7.55
2018-12-30T05:10:44.886Z,7.55
2018-12-30T05:13:13.216Z,7.56
2018-12-30T05:15:42.141Z,7.57
2018-12-30T05:18:10.466Z,7.59
2018-12-30T05:20:38.797Z,7.60
2018-12-30T05:23:07.496Z,7.62
2018-12-30T05:25:35.821Z,7.64
2018-12-30T05:28:04.162Z,7.65
2018-12-30T05:30:32.503Z,7.67
2018-12-30T05:33:00.831Z,7.71
2018-12-30T05:35:29.159Z,7.73
2018-12-30T05:37:57.752Z,7.73
2018-12-30T05:40:26.070Z,7.73
2018-12-30T05:42:54.408Z,7.72
2018-12-30T05:45:22.748Z,7.72
2018-12-30T05:47:51.078Z,7.74
2018-12-30T05:50:19.397Z,7.78
2018-12-30T05:52:47.727Z,7.79
2018-12-30T05:55:16.050Z,7.81
2018-12-30T05:57:44.380Z,7.82
2018-12-30T06:00:12.698Z,7.84
2018-12-30T06:02:41.023Z,7.84
2018-12-30T06:05:09.355Z,7.82
2018-12-30T06:07:37.679Z,7.80
2018-12-30T06:10:06.014Z,7.81
2018-12-30T06:12:34.346Z,7.84
2018-12-30T06:15:02.676Z,7.91
2018-12-30T06:17:31.004Z,7.96
2018-12-30T06:19:59.332Z,8.00
2018-12-30T06:22:27.725Z,8.02
2018-12-30T06:24:55.988Z,7.99
2018-12-30T06:27:24.318Z,7.93
2018-12-30T06:29:52.644Z,7.84
2018-12-30T06:32:20.961Z,7.80
2018-12-30T06:34:49.277Z,7.74
2018-12-30T06:37:17.610Z,7.68
2018-12-30T06:39:45.925Z,7.62
2018-12-30T06:42:14.253Z,7.61
2018-12-30T06:44:42.579Z,7.59
2018-12-30T06:47:10.892Z,7.59
2018-12-30T06:49:39.218Z,7.62
2018-12-30T06:52:07.544Z,7.64
2018-12-30T06:54:35.867Z,7.64
2018-12-30T06:57:04.186Z,7.63
2018-12-30T06:59:32.510Z,7.63
2018-12-30T07:02:00.832Z,7.61
2018-12-30T07:04:29.141Z,7.60
2018-12-30T07:06:57.464Z,7.61
2018-12-30T07:09:25.774Z,7.64
2018-12-30T07:11:54.097Z,7.63
2018-12-30T07:14:22.426Z,7.60
2018-12-30T07:16:50.733Z,7.58
2018-12-30T07:19:19.067Z,7.56
2018-12-30T07:21:47.408Z,7.57
2018-12-30T07:24:15.729Z,7.58
2018-12-30T07:26:44.051Z,7.56
2018-12-30T07:29:12.387Z,7.53
2018-12-30T07:31:40.702Z,7.50
2018-12-30T07:34:09.055Z,7.47
2018-12-30T07:36:37.383Z,7.47
2018-12-30T07:39:05.716Z,7.44
2018-12-30T07:41:34.039Z,7.43
2018-12-30T07:44:02.693Z,7.40
2018-12-30T07:46:31.025Z,7.41
2018-12-30T07:48:59.364Z,7.40
2018-12-30T07:51:27.696Z,7.38
2018-12-30T07:53:56.325Z,7.40
2018-12-30T07:56:24.652Z,7.42
2018-12-30T07:58:53.011Z,7.41
2018-12-30T08:01:21.333Z,7.41
2018-12-30T08:03:49.646Z,7.42
2018-12-30T08:06:17.976Z,7.40
2018-12-30T08:08:46.304Z,7.40
2018-12-30T08:11:14.626Z,7.41
2018-12-30T08:13:42.960Z,7.39
2018-12-30T08:16:11.297Z,7.44
2018-12-30T08:18:39.613Z,7.49
2018-12-30T08:21:07.940Z,7.52
2018-12-30T08:23:36.276Z,7.53
2018-12-30T08:26:04.604Z,7.51
2018-12-30T08:28:32.928Z,7.53
2018-12-30T08:31:01.312Z,7.48
2018-12-30T08:33:29.639Z,7.47
2018-12-30T08:35:57.968Z,7.50
2018-12-30T08:38:26.300Z,7.50
2018-12-30T08:40:54.625Z,7.48
2018-12-30T08:43:22.961Z,7.47
2018-12-30T08:45:51.292Z,7.47
2018-12-30T08:48:19.707Z,7.48
2018-12-30T08:50:48.018Z,7.50
2018-12-30T08:53:16.553Z,7.48
2018-12-30T08:55:44.668Z,7.46
2018-12-30T08:58:12.975Z,7.43
2018-12-30T09:00:41.544Z,7.40
2018-12-30T09:03:09.656Z,7.36
2018-12-30T09:05:37.987Z,7.33
2018-12-30T09:08:06.312Z,7.35
2018-12-30T09:10:34.673Z,7.37
2018-12-30T09:13:03.008Z,7.40
2018-12-30T09:15:31.752Z,7.42
2018-12-30T09:18:00.065Z,7.44
2018-12-30T09:20:28.391Z,7.46
2018-12-30T09:22:56.735Z,7.50
2018-12-30T09:25:25.376Z,7.54
2018-12-30T09:27:53.715Z,7.59
2018-12-30T09:30:22.038Z,7.60
2018-12-30T09:32:50.366Z,7.62
2018-12-30T09:35:19.202Z,7.65
2018-12-30T09:37:47.544Z,7.65
2018-12-30T09:40:16.115Z,7.66
2018-12-30T09:42:44.210Z,7.67
2018-12-30T09:45:12.624Z,7.66
2018-12-30T09:47:40.863Z,7.66
2018-12-30T09:50:09.429Z,7.66
2018-12-30T09:52:37.541Z,7.64
2018-12-30T09:55:06.167Z,7.59
2018-12-30T09:57:34.487Z,7.61
2018-12-30T10:00:02.833Z,7.65
2018-12-30T10:02:31.157Z,7.67
2018-12-30T10:04:59.493Z,7.68
2018-12-30T10:07:27.824Z,7.68
2018-12-30T10:09:56.162Z,7.69
2018-12-30T10:12:24.491Z,7.72
2018-12-30T10:14:52.830Z,7.72
2018-12-30T10:17:21.165Z,7.71
2018-12-30T10:19:49.494Z,7.71
2018-12-30T10:22:17.836Z,7.70
2018-12-30T10:24:46.179Z,7.71
2018-12-30T10:27:14.518Z,7.73
2018-12-30T10:29:42.859Z,7.78
2018-12-30T10:32:12.136Z,7.79
2018-12-30T10:34:40.524Z,7.79
2018-12-30T10:37:08.847Z,7.79
2018-12-30T10:39:37.182Z,7.75
2018-12-30T10:42:05.501Z,7.74
2018-12-30T10:44:33.829Z,7.76
2018-12-30T10:47:02.158Z,7.79
2018-12-30T10:49:30.496Z,7.78
2018-12-30T10:51:58.845Z,7.77
2018-12-30T10:54:27.164Z,7.78
2018-12-30T10:56:55.505Z,7.74
2018-12-30T10:59:23.835Z,7.69
2018-12-30T11:01:52.239Z,7.67
2018-12-30T11:04:20.491Z,7.65
2018-12-30T11:06:49.541Z,7.66
2018-12-30T11:09:17.893Z,7.64
2018-12-30T11:11:46.772Z,7.65
2018-12-30T11:14:14.902Z,7.62
2018-12-30T11:16:43.208Z,7.62
2018-12-30T11:19:11.597Z,7.59
2018-12-30T11:21:41.008Z,7.57
2018-12-30T11:24:09.345Z,7.59
2018-12-30T11:26:37.682Z,7.61
2018-12-30T11:29:06.359Z,7.60
2018-12-30T11:31:34.695Z,7.63
2018-12-30T11:34:03.044Z,7.61
2018-12-30T11:36:31.377Z,7.63
2018-12-30T11:38:59.725Z,7.61
2018-12-30T11:41:28.064Z,7.60
2018-12-30T11:43:56.420Z,7.60
2018-12-30T11:46:24.756Z,7.61
2018-12-30T11:48:53.086Z,7.62
2018-12-30T11:51:21.413Z,7.62
2018-12-30T11:53:49.772Z,7.64
2018-12-30T11:56:18.078Z,7.65
2018-12-30T11:58:46.394Z,7.65
2018-12-30T12:01:14.721Z,7.62
2018-12-30T12:03:43.050Z,7.64
2018-12-30T12:06:11.383Z,7.69
2018-12-30T12:08:39.705Z,7.72
2018-12-30T12:11:08.059Z,7.77
2018-12-30T12:13:36.379Z,7.78
2018-12-30T12:16:04.720Z,7.79
2018-12-30T12:18:33.056Z,7.79
2018-12-30T12:21:01.380Z,7.78
2018-12-30T12:23:29.699Z,7.76
2018-12-30T12:25:58.045Z,7.79
2018-12-30T12:28:26.388Z,7.77
2018-12-30T12:30:54.741Z,7.73
2018-12-30T12:33:23.061Z,7.70
2018-12-30T12:35:51.601Z,7.65
2018-12-30T12:38:20.945Z,7.65
2018-12-30T12:40:49.273Z,7.69
2018-12-30T12:43:17.611Z,7.72
2018-12-30T12:45:45.947Z,7.75
2018-12-30T12:48:14.587Z,7.77
2018-12-30T12:50:43.169Z,7.79
2018-12-30T12:53:11.509Z,7.79
2018-12-30T12:55:39.886Z,7.78
2018-12-30T12:58:08.139Z,7.79
2018-12-30T13:00:36.462Z,7.78
2018-12-30T13:03:04.784Z,7.76
2018-12-30T13:05:33.104Z,7.73
2018-12-30T13:08:02.110Z,7.72
2018-12-30T13:10:30.438Z,7.69
2018-12-30T13:12:58.769Z,7.69
2018-12-30T13:15:27.083Z,7.66
2018-12-30T13:17:55.408Z,7.65
2018-12-30T13:20:23.737Z,7.64
2018-12-30T13:22:52.052Z,7.63
2018-12-30T13:25:20.382Z,7.65
2018-12-30T13:27:48.698Z,7.65
2018-12-30T13:30:17.018Z,7.64
2018-12-30T13:32:45.349Z,7.66
2018-12-30T13:35:13.694Z,7.66
2018-12-30T13:37:42.108Z,7.69
2018-12-30T13:40:10.352Z,7.69
2018-12-30T13:42:38.676Z,7.68
2018-12-30T13:45:07.268Z,7.64
2018-12-30T13:47:35.595Z,7.59
2018-12-30T13:50:03.947Z,7.54
2018-12-30T13:52:32.458Z,7.52
2018-12-30T13:55:00.913Z,7.50
2018-12-30T13:57:29.233Z,7.45
2018-12-30T13:59:57.562Z,7.46
2018-12-30T14:02:26.347Z,7.46
2018-12-30T14:04:54.687Z,7.44
2018-12-30T14:07:23.041Z,7.42
2018-12-30T14:09:53.097Z,7.39
2018-12-30T14:12:21.420Z,7.38
2018-12-30T14:14:49.782Z,7.34
2018-12-30T14:17:18.154Z,7.32
2018-12-30T14:19:46.479Z,7.30
2018-12-30T14:22:14.902Z,7.31
2018-12-30T14:24:43.213Z,7.31
2018-12-30T14:27:11.526Z,7.32
2018-12-30T14:29:39.841Z,7.33
2018-12-30T14:32:09.360Z,7.32
2018-12-30T14:34:37.453Z,7.27
2018-12-30T14:37:05.767Z,7.24
2018-12-30T14:39:34.086Z,7.20
2018-12-30T14:42:02.414Z,7.17
2018-12-30T14:44:30.764Z,7.14
2018-12-30T14:46:59.100Z,7.10
2018-12-30T14:49:27.435Z,7.07
2018-12-30T14:51:55.779Z,7.07
2018-12-30T14:54:24.116Z,7.01
2018-12-30T14:56:52.443Z,6.99
2018-12-30T14:59:21.078Z,6.97
2018-12-30T15:01:50.217Z,6.90
2018-12-30T15:04:18.543Z,6.88
2018-12-30T15:06:46.867Z,6.89
2018-12-30T15:09:15.199Z,6.85
2018-12-30T15:11:43.558Z,6.84
2018-12-30T15:14:11.879Z,6.85
2018-12-30T15:16:40.201Z,6.83
2018-12-30T15:19:08.548Z,6.80
2018-12-30T15:21:36.875Z,6.78
2018-12-30T15:24:05.207Z,6.73
2018-12-30T15:26:33.533Z,6.68
2018-12-30T15:29:01.865Z,6.60
2018-12-30T15:31:30.204Z,6.52
2018-12-30T15:33:58.517Z,6.49
2018-12-30T15:36:26.838Z,6.44
2018-12-30T15:38:55.173Z,6.41
2018-12-30T15:41:23.510Z,6.41
2018-12-30T15:43:51.992Z,6.39
2018-12-30T15:46:20.304Z,6.37
2018-12-30T15:48:48.626Z,6.34
2018-12-30T15:51:16.967Z,6.31
2018-12-30T15:53:46.107Z,6.30
2018-12-30T15:56:14.439Z,6.31
2018-12-30T15:58:42.777Z,6.27
2018-12-30T16:01:11.132Z,6.27
2018-12-30T16:03:39.441Z,6.26
2018-12-30T16:06:07.760Z,6.23
2018-12-30T16:08:36.078Z,6.21
2018-12-30T16:11:04.410Z,6.19
2018-12-30T16:13:33.166Z,6.19
2018-12-30T16:16:01.522Z,6.16
2018-12-30T16:18:29.856Z,6.14
2018-12-30T16:20:58.177Z,6.15
2018-12-30T16:23:26.542Z,6.16
2018-12-30T16:25:54.857Z,6.14
2018-12-30T16:28:24.138Z,6.09
2018-12-30T16:30:51.519Z,6.07
2018-12-30T16:33:20.964Z,6.04
2018-12-30T16:35:49.093Z,6.02
2018-12-30T16:38:21.513Z,6.02
2018-12-30T16:40:49.731Z,6.06
2018-12-30T16:43:18.470Z,6.07
2018-12-30T16:45:46.387Z,6.09
2018-12-30T16:48:14.713Z,6.02
2018-12-30T16:50:43.117Z,6.00
2018-12-30T16:53:13.370Z,5.97
2018-12-30T16:55:41.694Z,5.96
2018-12-30T16:58:10.033Z,5.97
2018-12-30T17:00:38.361Z,5.95
2018-12-30T17:03:06.833Z,5.96
2018-12-30T17:05:35.584Z,5.92
2018-12-30T17:08:03.898Z,5.94
2018-12-30T17:10:32.224Z,5.95
2018-12-30T17:13:00.544Z,5.98
2018-12-30T17:15:28.884Z,5.97
2018-12-30T17:17:57.212Z,5.95
2018-12-30T17:20:25.525Z,5.93
2018-12-30T17:22:53.849Z,5.94
2018-12-30T17:25:22.184Z,5.95
2018-12-30T17:27:50.567Z,5.96
2018-12-30T17:30:18.889Z,5.96
2018-12-30T17:32:47.450Z,5.97
2018-12-30T17:35:15.783Z,5.94
2018-12-30T17:37:44.105Z,5.89
2018-12-30T17:40:12.442Z,5.88
2018-12-30T17:42:41.482Z,5.84
2018-12-30T17:45:09.846Z,5.82
2018-12-30T17:47:38.166Z,5.81
2018-12-30T17:50:06.490Z,5.78
2018-12-30T17:52:35.736Z,5.79
2018-12-30T17:55:04.057Z,5.77
2018-12-30T17:57:32.661Z,5.78
2018-12-30T18:00:00.984Z,5.78
2018-12-30T18:02:29.313Z,5.78
2018-12-30T18:04:57.915Z,5.79
2018-12-30T18:07:27.080Z,5.73
2018-12-30T18:09:55.626Z,5.73
2018-12-30T18:12:23.784Z,5.71
2018-12-30T18:14:52.080Z,5.72
2018-12-30T18:17:20.434Z,5.69
2018-12-30T18:19:48.759Z,5.69
2018-12-30T18:22:17.106Z,5.70
2018-12-30T18:24:45.438Z,5.71
2018-12-30T18:27:14.055Z,5.71
2018-12-30T18:29:42.560Z,5.71
2018-12-30T18:32:10.891Z,5.75
2018-12-30T18:34:39.351Z,5.74
2018-12-30T18:37:07.680Z,5.76
2018-12-30T18:39:36.019Z,5.77
2018-12-30T18:42:04.564Z,5.78
2018-12-30T18:44:32.911Z,5.79
2018-12-30T18:47:01.678Z,5.81
2018-12-30T18:49:30.093Z,5.82
2018-12-30T18:51:58.430Z,5.84
2018-12-30T18:54:27.181Z,5.87
2018-12-30T18:56:56.367Z,5.86
2018-12-30T18:59:24.830Z,5.87
2018-12-30T19:01:53.279Z,5.86
2018-12-30T19:04:22.276Z,5.87
2018-12-30T19:06:50.883Z,5.90
2018-12-30T19:09:19.108Z,5.92
2018-12-30T19:11:47.787Z,5.96
2018-12-30T19:14:17.038Z,5.97
2018-12-30T19:16:45.507Z,5.98
2018-12-30T19:19:13.822Z,5.98
2018-12-30T19:21:42.138Z,5.98
2018-12-30T19:24:10.471Z,5.97
2018-12-30T19:26:38.796Z,5.96
2018-12-30T19:29:07.133Z,5.98
2018-12-30T19:31:35.742Z,5.98
2018-12-30T19:34:04.083Z,5.97
2018-12-30T19:36:32.426Z,5.97
2018-12-30T19:39:00.767Z,5.97
2018-12-30T19:41:29.098Z,5.96
2018-12-30T19:43:57.409Z,5.93
2018-12-30T19:46:25.749Z,5.93
2018-12-30T19:48:54.076Z,5.94
2018-12-30T19:51:22.414Z,5.93
2018-12-30T19:53:50.738Z,5.92
2018-12-30T19:56:22.060Z,5.93
2018-12-30T19:58:47.370Z,5.95
2018-12-30T20:01:15.688Z,5.96
2018-12-30T20:03:44.025Z,5.97
2018-12-30T20:06:12.350Z,5.98
2018-12-30T20:08:40.688Z,6.02
2018-12-30T20:11:10.806Z,6.04
2018-12-30T20:13:39.148Z,6.04
2018-12-30T20:16:07.481Z,6.05
2018-12-30T20:18:35.873Z,6.06
2018-12-30T20:21:04.293Z,6.08
2018-12-30T20:23:32.623Z,6.10
2018-12-30T20:26:01.279Z,6.12
2018-12-30T20:28:29.595Z,6.13
2018-12-30T20:30:58.244Z,6.16
2018-12-30T20:33:26.568Z,6.17
2018-12-30T20:35:54.986Z,6.17
2018-12-30T20:38:23.271Z,6.17
2018-12-30T20:40:51.599Z,6.17
2018-12-30T20:43:20.782Z,6.16
2018-12-30T20:45:49.336Z,6.16
2018-12-30T20:48:17.741Z,6.18
2018-12-30T20:50:45.895Z,6.19
2018-12-30T20:53:14.279Z,6.21
2018-12-30T20:55:42.632Z,6.23
2018-12-30T20:58:11.060Z,6.24
2018-12-30T21:00:39.415Z,6.25
2018-12-30T21:03:07.739Z,6.28
2018-12-30T21:05:36.084Z,6.27
2018-12-30T21:08:04.594Z,6.29
2018-12-30T21:10:32.961Z,6.29
2018-12-30T21:13:01.288Z,6.28
2018-12-30T21:15:29.634Z,6.28
2018-12-30T21:17:57.984Z,6.29
2018-12-30T21:20:26.312Z,6.30
2018-12-30T21:22:54.632Z,6.29
2018-12-30T21:25:22.946Z,6.27
2018-12-30T21:27:51.271Z,6.25
2018-12-30T21:30:19.604Z,6.24
2018-12-30T21:32:47.929Z,6.26
2018-12-30T21:35:16.255Z,6.27
2018-12-30T21:37:44.591Z,6.28
2018-12-30T21:40:13.507Z,6.29
2018-12-30T21:42:43.948Z,6.26
2018-12-30T21:45:10.160Z,6.24
2018-12-30T21:47:38.511Z,6.23
2018-12-30T21:50:06.852Z,6.20
2018-12-30T21:52:35.493Z,6.15
2018-12-30T21:55:03.837Z,6.10
2018-12-30T21:57:32.167Z,6.05
2018-12-30T22:00:00.480Z,6.00
2018-12-30T22:02:28.814Z,5.95
2018-12-30T22:04:57.133Z,5.87
2018-12-30T22:07:25.464Z,5.81
2018-12-30T22:09:53.788Z,5.76
2018-12-30T22:12:22.098Z,5.73
2018-12-30T22:14:59.515Z,5.69
2018-12-30T22:17:25.173Z,5.66
2018-12-30T22:19:57.239Z,5.62
2018-12-30T22:22:29.460Z,5.56
2018-12-30T22:25:01.532Z,5.51
2018-12-30T22:27:31.939Z,5.48
2018-12-30T22:30:02.233Z,5.44
2018-12-30T22:32:30.489Z,5.41
2018-12-30T22:34:58.814Z,5.39
2018-12-30T22:37:27.148Z,5.37
2018-12-30T22:40:01.003Z,5.34
2018-12-30T22:42:32.766Z,5.32
2018-12-30T22:44:57.184Z,5.29
2018-12-30T22:47:25.877Z,5.25
2018-12-30T22:49:57.234Z,5.23
2018-12-30T22:52:23.175Z,5.20
2018-12-30T22:54:51.499Z,5.15
2018-12-30T22:57:20.775Z,5.13
2018-12-30T22:59:51.064Z,5.12
2018-12-30T23:02:21.967Z,5.09
2018-12-30T23:04:50.298Z,5.08
2018-12-30T23:07:18.621Z,5.05
2018-12-30T23:09:46.947Z,5.04
2018-12-30T23:12:17.564Z,5.04
2018-12-30T23:14:45.892Z,5.05
2018-12-30T23:17:14.210Z,5.07
2018-12-30T23:19:42.542Z,5.09
2018-12-30T23:22:10.875Z,5.09
2018-12-30T23:24:39.198Z,5.12
2018-12-30T23:27:07.532Z,5.12
2018-12-30T23:29:35.861Z,5.13
2018-12-30T23:32:04.192Z,5.15
2018-12-30T23:34:32.516Z,5.16
2018-12-30T23:37:01.072Z,5.19
2018-12-30T23:39:29.170Z,5.22
2018-12-30T23:41:57.754Z,5.23
2018-12-30T23:44:25.842Z,5.23
2018-12-30T23:46:54.515Z,5.24
2018-12-30T23:49:23.174Z,5.25
2018-12-30T23:51:51.495Z,5.26
2018-12-30T23:54:21.717Z,5.27
2018-12-30T23:56:50.048Z,5.26
2018-12-30T23:59:18.373Z,5.25
